createdAt,value
2022-11-12T00:01:12.816Z,6.45
2022-11-12T00:03:58.030Z,7.18
2022-11-12T00:06:43.537Z,6.05
2022-11-12T00:09:28.699Z,5.55
2022-11-12T00:12:13.902Z,6.13
2022-11-12T00:14:59.503Z,6.22
2022-11-12T00:17:45.428Z,6.60
2022-11-12T00:20:30.879Z,6.80
2022-11-12T00:23:16.170Z,7.00
2022-11-12T00:26:01.946Z,5.97
2022-11-12T00:28:47.473Z,5.80
2022-11-12T00:31:34.488Z,6.85
2022-11-12T00:34:19.881Z,8.32
2022-11-12T00:37:05.720Z,5.78
2022-11-12T00:39:51.043Z,6.38
2022-11-12T00:42:36.697Z,5.18
2022-11-12T00:45:22.284Z,6.22
2022-11-12T00:48:07.749Z,6.03
2022-11-12T00:51:00.126Z,7.93
2022-11-12T00:53:49.056Z,5.28
2022-11-12T00:56:35.738Z,7.15
2022-11-12T00:59:21.272Z,5.60
2022-11-12T01:02:06.808Z,7.18
2022-11-12T01:04:53.114Z,5.68
2022-11-12T01:07:38.461Z,5.60
2022-11-12T01:10:23.797Z,5.00
2022-11-12T01:13:08.990Z,4.95
2022-11-12T01:15:54.164Z,5.43
2022-11-12T01:18:39.459Z,4.43
2022-11-12T01:21:26.457Z,4.95
2022-11-12T01:24:11.844Z,4.15
2022-11-12T01:26:57.253Z,4.43
2022-11-12T01:29:42.900Z,4.75
2022-11-12T01:32:28.382Z,4.25
2022-11-12T01:35:13.898Z,4.90
2022-11-12T01:37:59.437Z,5.68
2022-11-12T01:40:45.102Z,4.22
2022-11-12T01:43:31.307Z,5.50
2022-11-12T01:46:25.872Z,4.97
2022-11-12T01:49:17.453Z,5.18
2022-11-12T01:52:31.613Z,4.53
2022-11-12T01:55:22.143Z,6.97
2022-11-12T01:58:18.253Z,4.60
2022-11-12T02:01:04.350Z,6.15
2022-11-12T02:07:18.899Z,5.53
2022-11-12T02:10:05.834Z,6.07
2022-11-12T02:13:10.489Z,5.88
2022-11-12T02:15:56.159Z,5.28
2022-11-12T02:18:41.558Z,5.65
2022-11-12T02:21:28.557Z,5.30
2022-11-12T02:24:14.005Z,6.43
2022-11-12T02:27:00.004Z,5.90
2022-11-12T02:29:48.373Z,5.80
2022-11-12T02:32:34.045Z,5.15
2022-11-12T02:35:19.604Z,4.68
2022-11-12T02:38:05.959Z,5.82
2022-11-12T02:40:52.103Z,5.93
2022-11-12T02:43:37.475Z,5.68
2022-11-12T02:46:23.121Z,4.43
2022-11-12T02:49:08.780Z,6.07
2022-11-12T02:51:54.126Z,5.10
2022-11-12T02:54:39.649Z,4.13
2022-11-12T02:57:24.745Z,5.78
2022-11-12T03:00:12.106Z,5.05
2022-11-12T03:02:59.049Z,5.88
2022-11-12T03:05:45.774Z,5.93
2022-11-12T03:08:31.278Z,6.03
2022-11-12T03:11:17.705Z,4.55
2022-11-12T03:14:03.361Z,4.75
2022-11-12T03:16:48.868Z,5.60
2022-11-12T03:19:34.080Z,5.40
2022-11-12T03:22:19.515Z,4.95
2022-11-12T03:25:06.749Z,6.03
2022-11-12T03:28:18.285Z,4.65
2022-11-12T03:31:03.796Z,5.72
2022-11-12T03:33:48.993Z,5.65
2022-11-12T03:36:34.256Z,5.38
2022-11-12T03:39:19.714Z,4.80
2022-11-12T03:42:05.043Z,4.95
2022-11-12T03:44:50.557Z,6.45
2022-11-12T03:47:35.799Z,4.75
2022-11-12T03:50:23.609Z,5.97
2022-11-12T03:53:09.216Z,6.25
2022-11-12T03:55:55.119Z,4.93
2022-11-12T03:58:40.573Z,5.40
2022-11-12T04:01:26.077Z,6.28
2022-11-12T04:04:11.604Z,7.28
2022-11-12T04:07:15.842Z,5.75
2022-11-12T04:10:01.437Z,6.05
2022-11-12T04:13:05.884Z,5.38
2022-11-12T04:16:11.472Z,5.20
2022-11-12T04:19:17.361Z,5.20
2022-11-12T04:22:11.160Z,6.20
2022-11-12T04:25:15.607Z,5.18
2022-11-12T04:28:00.832Z,5.50
2022-11-12T04:30:46.162Z,5.57
2022-11-12T04:33:31.254Z,5.82
2022-11-12T04:36:16.510Z,4.93
2022-11-12T04:39:01.961Z,4.63
2022-11-12T04:42:06.203Z,5.53
2022-11-12T04:45:04.845Z,7.75
2022-11-12T04:47:50.194Z,5.50
2022-11-12T04:50:35.786Z,4.88
2022-11-12T04:53:21.550Z,4.53
2022-11-12T04:56:07.216Z,4.32
2022-11-12T04:58:52.520Z,5.30
2022-11-12T05:01:37.913Z,5.32
2022-11-12T05:04:23.198Z,4.88
2022-11-12T05:07:08.580Z,5.43
2022-11-12T05:09:54.218Z,4.80
2022-11-12T05:12:39.756Z,5.05
2022-11-12T05:15:25.347Z,4.70
2022-11-12T05:18:10.872Z,4.43
2022-11-12T05:20:56.699Z,5.47
2022-11-12T05:23:41.870Z,6.03
2022-11-12T05:26:27.531Z,4.50
2022-11-12T05:29:12.980Z,6.68
2022-11-12T05:31:58.441Z,5.30
2022-11-12T05:34:44.350Z,6.30
2022-11-12T05:37:30.266Z,6.22
2022-11-12T05:40:16.016Z,6.43
2022-11-12T05:43:01.397Z,5.80
2022-11-12T05:45:46.641Z,5.55
2022-11-12T05:48:32.079Z,5.65
2022-11-12T05:51:17.693Z,5.40
2022-11-12T05:54:03.506Z,6.25
2022-11-12T05:56:48.720Z,6.78
2022-11-12T05:59:34.047Z,6.47
2022-11-12T06:02:19.459Z,6.63
2022-11-12T06:05:05.212Z,5.80
2022-11-12T06:07:51.079Z,4.93
2022-11-12T06:10:36.401Z,5.88
2022-11-12T06:13:23.551Z,5.57
2022-11-12T06:16:09.672Z,4.85
2022-11-12T06:18:55.177Z,4.03
2022-11-12T06:21:40.377Z,6.18
2022-11-12T06:24:32.088Z,5.93
2022-11-12T06:27:19.912Z,6.20
2022-11-12T06:30:06.476Z,7.47
2022-11-12T06:32:52.970Z,5.78
2022-11-12T06:35:42.761Z,5.15
2022-11-12T06:38:29.946Z,5.90
2022-11-12T06:41:15.959Z,5.72
2022-11-12T06:44:03.302Z,6.22
2022-11-12T06:46:48.595Z,5.50
2022-11-12T06:49:33.787Z,5.38
2022-11-12T06:52:19.121Z,6.18
2022-11-12T06:55:04.860Z,5.25
2022-11-12T06:57:53.589Z,5.40
2022-11-12T07:00:39.372Z,7.63
2022-11-12T07:03:24.885Z,6.43
2022-11-12T07:06:12.693Z,6.70
2022-11-12T07:08:58.128Z,6.45
2022-11-12T07:11:43.475Z,6.10
2022-11-12T07:14:29.271Z,7.25
2022-11-12T07:17:14.606Z,5.45
2022-11-12T07:20:03.963Z,6.45
2022-11-12T07:22:50.119Z,6.68
2022-11-12T07:25:35.442Z,6.55
2022-11-12T07:28:21.287Z,5.72
2022-11-12T07:31:09.886Z,5.80
2022-11-12T07:33:55.496Z,8.43
2022-11-12T07:36:40.628Z,6.07
2022-11-12T07:39:25.990Z,6.75
2022-11-12T07:42:11.689Z,7.70
2022-11-12T07:44:57.300Z,8.02
2022-11-12T07:47:42.537Z,6.72
2022-11-12T07:50:28.154Z,5.82
2022-11-12T07:53:13.270Z,6.30
2022-11-12T07:56:01.471Z,7.32
2022-11-12T07:58:48.193Z,6.50
2022-11-12T08:01:36.617Z,6.78
2022-11-12T08:04:21.974Z,7.43
2022-11-12T08:07:07.275Z,5.78
2022-11-12T08:09:53.565Z,6.40
2022-11-12T08:12:38.670Z,5.90
2022-11-12T08:15:24.103Z,6.32
2022-11-12T08:18:09.763Z,5.75
2022-11-12T08:21:06.867Z,6.53
2022-11-12T08:23:52.533Z,5.40
2022-11-12T08:26:38.087Z,5.18
2022-11-12T08:29:23.502Z,5.55
2022-11-12T08:32:08.644Z,4.80
2022-11-12T08:34:53.809Z,5.80
2022-11-12T08:37:38.953Z,4.68
2022-11-12T08:40:24.654Z,6.53
2022-11-12T08:43:10.789Z,5.35
2022-11-12T08:45:59.634Z,5.03
2022-11-12T08:48:44.925Z,5.57
2022-11-12T08:51:30.338Z,5.10
2022-11-12T08:54:16.317Z,4.57
2022-11-12T08:57:01.378Z,5.55
2022-11-12T08:59:46.836Z,4.57
2022-11-12T09:02:32.283Z,5.90
2022-11-12T09:05:17.693Z,4.72
2022-11-12T09:08:13.163Z,5.88
2022-11-12T09:10:59.171Z,4.10
2022-11-12T09:13:44.689Z,4.50
2022-11-12T09:16:30.106Z,6.45
2022-11-12T09:19:15.550Z,5.32
2022-11-12T09:22:00.977Z,5.20
2022-11-12T09:24:46.244Z,6.25
2022-11-12T09:27:31.872Z,4.20
2022-11-12T09:30:17.717Z,4.25
2022-11-12T09:33:03.296Z,3.55
2022-11-12T09:35:49.615Z,5.85
2022-11-12T09:38:35.006Z,6.00
2022-11-12T09:41:28.265Z,5.30
2022-11-12T09:44:22.123Z,4.93
2022-11-12T09:47:39.876Z,5.38
2022-11-12T09:50:29.005Z,3.63
2022-11-12T09:53:18.662Z,4.13
2022-11-12T09:56:10.476Z,3.92
2022-11-12T09:58:56.316Z,4.00
2022-11-12T10:01:59.721Z,5.63
2022-11-12T10:05:09.567Z,5.38
2022-11-12T10:08:11.188Z,4.03
2022-11-12T10:11:54.397Z,5.38
2022-11-12T10:15:20.821Z,3.97
2022-11-12T10:18:44.045Z,7.03
2022-11-12T10:21:29.450Z,5.43
2022-11-12T10:24:14.562Z,4.10
2022-11-12T10:27:00.780Z,6.13
2022-11-12T10:30:00.726Z,7.22
2022-11-12T10:32:47.535Z,6.35
2022-11-12T10:35:33.216Z,7.25
2022-11-12T10:38:25.657Z,6.43
2022-11-12T10:41:28.024Z,5.82
2022-11-12T10:44:17.616Z,3.80
2022-11-12T10:47:27.534Z,7.03
2022-11-12T10:50:28.619Z,5.25
2022-11-12T10:53:27.803Z,6.50
2022-11-12T10:56:31.568Z,6.03
2022-11-12T10:59:21.743Z,6.55
2022-11-12T11:02:17.055Z,6.50
2022-11-12T11:05:31.055Z,7.10
2022-11-12T11:08:36.000Z,8.05
2022-11-12T11:11:31.585Z,6.43
2022-11-12T11:14:23.002Z,7.15
2022-11-12T11:17:18.115Z,6.68
2022-11-12T11:20:06.175Z,7.80
2022-11-12T11:22:59.750Z,5.97
2022-11-12T11:25:48.594Z,6.47
2022-11-12T11:28:44.864Z,7.00
2022-11-12T11:31:53.097Z,7.05
2022-11-12T11:35:05.800Z,7.45
2022-11-12T11:38:07.561Z,7.65
2022-11-12T11:44:06.073Z,7.28
2022-11-12T11:47:17.995Z,6.93
2022-11-12T11:50:28.060Z,6.88
2022-11-12T11:53:23.701Z,7.47
2022-11-12T11:56:24.332Z,7.53
2022-11-12T11:59:17.016Z,8.00
2022-11-12T12:02:11.091Z,8.00
2022-11-12T12:05:11.861Z,6.63
2022-11-12T12:08:06.134Z,6.80
2022-11-12T12:11:14.775Z,7.00
2022-11-12T12:14:46.211Z,7.15
2022-11-12T12:17:53.678Z,5.13
2022-11-12T12:20:50.768Z,8.98
2022-11-12T12:23:43.498Z,5.97
2022-11-12T12:26:40.094Z,6.90
2022-11-12T12:29:34.562Z,6.78
2022-11-12T12:32:27.503Z,6.55
2022-11-12T12:35:27.900Z,7.90
2022-11-12T12:38:31.982Z,7.45
2022-11-12T12:41:29.596Z,7.00
2022-11-12T12:44:16.814Z,6.28
2022-11-12T12:47:03.337Z,7.22
2022-11-12T12:49:50.776Z,7.25
2022-11-12T12:53:13.986Z,7.35
2022-11-12T12:56:07.495Z,7.90
2022-11-12T12:58:53.277Z,8.23
2022-11-12T13:01:38.556Z,7.45
2022-11-12T13:04:56.370Z,8.13
2022-11-12T13:07:47.721Z,8.60
2022-11-12T13:10:41.926Z,8.35
2022-11-12T13:13:32.963Z,8.10
2022-11-12T13:16:57.547Z,9.23
2022-11-12T13:19:52.749Z,8.55
2022-11-12T13:22:37.848Z,9.73
2022-11-12T13:25:31.903Z,7.50
2022-11-12T13:28:17.513Z,7.95
2022-11-12T13:31:04.244Z,10.18
2022-11-12T13:33:50.089Z,7.35
2022-11-12T13:36:36.331Z,9.30
2022-11-12T13:39:23.356Z,11.13
2022-11-12T13:42:36.644Z,9.63
2022-11-12T13:45:24.987Z,8.10
2022-11-12T13:48:23.208Z,10.27
2022-11-12T13:51:37.376Z,9.05
2022-11-12T13:54:32.600Z,7.15
2022-11-12T13:57:23.182Z,9.90
2022-11-12T14:00:09.450Z,9.00
2022-11-12T14:02:58.584Z,9.25
2022-11-12T14:05:48.636Z,9.77
2022-11-12T14:08:51.832Z,13.00
2022-11-12T14:11:48.510Z,13.98
2022-11-12T14:15:07.297Z,15.00
2022-11-12T14:18:01.523Z,13.70
2022-11-12T14:20:47.356Z,16.42
2022-11-12T14:23:37.126Z,14.60
2022-11-12T14:26:42.176Z,12.35
2022-11-12T14:29:32.928Z,12.60
2022-11-12T14:32:19.853Z,15.93
2022-11-12T14:35:32.787Z,15.52
2022-11-12T14:38:21.807Z,15.93
2022-11-12T14:41:19.290Z,14.15
2022-11-12T14:44:13.807Z,11.18
2022-11-12T14:47:00.240Z,13.82
2022-11-12T14:49:49.607Z,12.88
2022-11-12T14:52:42.949Z,13.05
2022-11-12T14:55:37.298Z,14.02
2022-11-12T14:58:24.496Z,13.00
2022-11-12T15:04:42.928Z,13.32
2022-11-12T15:07:34.545Z,12.73
2022-11-12T15:10:34.348Z,12.85
2022-11-12T15:13:22.347Z,13.77
2022-11-12T15:16:09.528Z,13.73
2022-11-12T15:19:22.219Z,15.35
2022-11-12T15:22:19.530Z,12.23
2022-11-12T15:25:23.090Z,14.65
2022-11-12T15:28:14.045Z,10.93
2022-11-12T15:31:21.679Z,11.07
2022-11-12T15:34:28.336Z,16.00
2022-11-12T15:37:25.817Z,14.52
2022-11-12T15:40:22.163Z,14.13
2022-11-12T15:43:16.853Z,13.55
2022-11-12T15:46:02.485Z,15.75
2022-11-12T15:48:54.481Z,12.43
2022-11-12T15:51:41.256Z,15.40
2022-11-12T15:54:26.615Z,11.80
2022-11-12T15:57:24.276Z,14.10
2022-11-12T16:00:22.863Z,16.60
2022-11-12T16:03:19.962Z,16.42
2022-11-12T16:06:09.258Z,12.57
2022-11-12T16:08:55.036Z,12.00
2022-11-12T16:11:40.553Z,12.68
2022-11-12T16:14:26.814Z,14.82
2022-11-12T16:17:14.685Z,18.20
2022-11-12T16:20:01.129Z,13.68
2022-11-12T16:22:46.291Z,13.45
2022-11-12T16:25:34.372Z,13.43
2022-11-12T16:28:19.667Z,12.38
2022-11-12T16:31:05.668Z,16.58
2022-11-12T16:33:51.244Z,13.50
2022-11-12T16:36:36.936Z,12.00
2022-11-12T16:39:22.170Z,11.82
2022-11-12T16:42:10.797Z,16.52
2022-11-12T16:44:56.567Z,13.23
2022-11-12T16:47:50.089Z,14.63
2022-11-12T16:50:35.678Z,13.60
2022-11-12T16:53:20.948Z,11.85
2022-11-12T16:56:11.600Z,12.07
2022-11-12T16:58:56.735Z,10.93
2022-11-12T17:01:44.022Z,13.30
2022-11-12T17:04:29.362Z,12.30
2022-11-12T17:07:14.756Z,13.00
2022-11-12T17:10:00.323Z,14.55
2022-11-12T17:12:48.725Z,11.95
2022-11-12T17:15:34.186Z,12.88
2022-11-12T17:18:19.308Z,16.85
2022-11-12T17:21:10.106Z,13.32
2022-11-12T17:23:57.925Z,11.13
2022-11-12T17:26:43.348Z,13.88
2022-11-12T17:29:28.893Z,10.93
2022-11-12T17:32:14.583Z,9.48
2022-11-12T17:34:59.771Z,11.73
2022-11-12T17:37:45.083Z,9.60
2022-11-12T17:40:30.652Z,13.30
2022-11-12T17:43:15.813Z,13.40
2022-11-12T17:46:01.331Z,11.40
2022-11-12T17:48:46.607Z,14.85
2022-11-12T17:51:32.132Z,10.65
2022-11-12T17:54:17.728Z,10.93
2022-11-12T17:57:03.823Z,9.52
2022-11-12T17:59:49.390Z,8.50
2022-11-12T18:02:34.888Z,8.65
2022-11-12T18:05:20.234Z,9.98
2022-11-12T18:08:05.906Z,12.13
2022-11-12T18:10:52.112Z,10.23
2022-11-12T18:13:37.936Z,10.18
2022-11-12T18:16:30.397Z,8.60
2022-11-12T18:19:16.725Z,11.25
2022-11-12T18:22:02.291Z,9.32
2022-11-12T18:24:50.245Z,9.00
2022-11-12T18:27:35.728Z,14.93
2022-11-12T18:30:21.336Z,15.57
2022-11-12T18:33:07.100Z,10.77
2022-11-12T18:36:07.327Z,8.25
2022-11-12T18:38:54.568Z,8.80
2022-11-12T18:41:39.930Z,7.38
2022-11-12T18:44:26.276Z,8.43
2022-11-12T18:47:11.827Z,10.27
2022-11-12T18:49:57.395Z,8.43
2022-11-12T18:52:43.532Z,9.95
2022-11-12T18:55:28.945Z,8.73
2022-11-12T18:58:14.122Z,8.88
2022-11-12T19:01:03.943Z,7.75
2022-11-12T19:03:53.431Z,8.73
2022-11-12T19:06:38.769Z,9.23
2022-11-12T19:09:24.393Z,9.57
2022-11-12T19:12:09.697Z,10.70
2022-11-12T19:14:55.183Z,12.45
2022-11-12T19:17:40.347Z,12.75
2022-11-12T19:20:26.289Z,8.82
2022-11-12T19:23:11.849Z,10.23
2022-11-12T19:26:03.711Z,9.27
2022-11-12T19:28:49.712Z,11.98
2022-11-12T19:31:34.916Z,12.45
2022-11-12T19:34:20.149Z,9.38
2022-11-12T19:37:31.657Z,8.65
2022-11-12T19:40:11.474Z,9.15
2022-11-12T19:42:56.900Z,9.20
2022-11-12T19:45:42.287Z,12.10
2022-11-12T19:48:28.737Z,8.13
2022-11-12T19:51:14.426Z,10.95
2022-11-12T19:54:02.245Z,12.40
2022-11-12T19:56:47.338Z,10.07
2022-11-12T19:59:32.777Z,11.93
2022-11-12T20:02:17.947Z,10.55
2022-11-12T20:05:04.464Z,10.85
2022-11-12T20:07:51.845Z,11.15
2022-11-12T20:10:37.173Z,10.25
2022-11-12T20:13:23.096Z,9.65
2022-11-12T20:16:10.037Z,9.75
2022-11-12T20:18:56.078Z,10.25
2022-11-12T20:21:41.736Z,9.00
2022-11-12T20:24:27.929Z,11.40
2022-11-12T20:27:13.291Z,11.77
2022-11-12T20:29:58.680Z,10.85
2022-11-12T20:32:44.062Z,10.65
2022-11-12T20:35:29.700Z,11.45
2022-11-12T20:38:14.900Z,9.05
2022-11-12T20:41:02.618Z,9.93
2022-11-12T20:43:51.330Z,9.82
2022-11-12T20:46:37.179Z,7.78
2022-11-12T20:49:22.587Z,8.80
2022-11-12T20:52:07.958Z,8.32
2022-11-12T20:54:53.333Z,11.40
2022-11-12T20:57:38.680Z,8.68
2022-11-12T21:00:24.614Z,9.32
2022-11-12T21:03:10.110Z,9.80
2022-11-12T21:06:03.537Z,9.85
2022-11-12T21:08:49.600Z,9.68
2022-11-12T21:11:35.061Z,10.90
2022-11-12T21:14:20.269Z,7.70
2022-11-12T21:17:05.626Z,8.57
2022-11-12T21:19:51.096Z,11.73
2022-11-12T21:22:37.507Z,10.50
2022-11-12T21:25:23.082Z,10.52
2022-11-12T21:28:08.387Z,9.25
2022-11-12T21:30:54.027Z,9.07
2022-11-12T21:33:39.837Z,9.30
2022-11-12T21:36:27.235Z,8.60
2022-11-12T21:39:13.145Z,8.60
2022-11-12T21:41:58.836Z,8.82
2022-11-12T21:44:44.232Z,7.82
2022-11-12T21:47:29.580Z,9.00
2022-11-12T21:50:14.900Z,8.52
2022-11-12T21:53:00.307Z,9.32
2022-11-12T21:55:45.972Z,8.32
2022-11-12T21:58:31.560Z,7.65
2022-11-12T22:01:20.085Z,8.35
2022-11-12T22:04:07.096Z,8.20
2022-11-12T22:06:52.511Z,9.68
2022-11-12T22:09:38.012Z,6.95
2022-11-12T22:12:23.892Z,6.65
2022-11-12T22:15:09.691Z,7.50
2022-11-12T22:17:57.270Z,8.60
2022-11-12T22:20:42.753Z,9.98
2022-11-12T22:23:28.208Z,9.23
2022-11-12T22:26:18.618Z,8.95
2022-11-12T22:29:04.140Z,9.18
2022-11-12T22:31:49.374Z,8.77
2022-11-12T22:34:34.809Z,8.35
2022-11-12T22:37:20.044Z,8.82
2022-11-12T22:40:10.505Z,6.07
2022-11-12T22:42:58.915Z,8.43
2022-11-12T22:45:44.526Z,7.78
2022-11-12T22:48:31.483Z,6.32
2022-11-12T22:51:19.743Z,5.88
2022-11-12T22:54:08.799Z,7.22
2022-11-12T22:56:54.184Z,7.97
2022-11-12T22:59:39.714Z,5.85
2022-11-12T23:02:25.325Z,6.38
2022-11-12T23:05:10.779Z,6.68
2022-11-12T23:07:56.256Z,5.32
2022-11-12T23:10:45.611Z,5.90
2022-11-12T23:13:32.178Z,6.95
2022-11-12T23:16:21.731Z,5.32
2022-11-12T23:19:07.809Z,6.03
2022-11-12T23:21:54.534Z,7.20
2022-11-12T23:24:40.021Z,7.35
2022-11-12T23:27:25.626Z,7.18
2022-11-12T23:30:11.350Z,6.22
2022-11-12T23:32:56.653Z,6.35
2022-11-12T23:35:42.302Z,7.72
2022-11-12T23:38:27.855Z,8.40
2022-11-12T23:41:16.635Z,6.38
2022-11-12T23:44:02.394Z,6.63
2022-11-12T23:46:47.619Z,6.07
2022-11-12T23:49:33.183Z,5.70
2022-11-12T23:52:19.067Z,4.90
2022-11-12T23:55:04.886Z,7.85
2022-11-12T23:57:53.420Z,5.07
